Observation data for Spur on 07/10/2020      Previous  Date  Next       Current Mesonet Observations  Soil Data  Daily Summary Page  Observations in Plain Language
KSP1 100500Z 16006KT 31/17 A2988 RMK A01 T03070173  RH  047%=      5-min Rain = 0
KSP1 100505Z 16007KT 31/17 A2988 RMK A01 T03060173  RH  047%=      5-min Rain = 0
KSP1 100510Z 16006KT 31/17 A2989 RMK A01 T03060174  RH  047%=      5-min Rain = 0
KSP1 100515Z 16005KT 31/17 A2989 RMK A01 T03050174  RH  048%=      5-min Rain = 0
KSP1 100520Z 17005KT 30/18 A2989 RMK A01 T03040175  RH  048%=      5-min Rain = 0
KSP1 100525Z 17005KT 30/18 A299 RMK A01 T03030176  RH  049%=      5-min Rain = 0
KSP1 100530Z 17004KT 30/18 A299 RMK A01 T03010177  RH  050%=      5-min Rain = 0
KSP1 100535Z 17005KT 30/18 A299 RMK A01 T02990177  RH  051%=      5-min Rain = 0
KSP1 100540Z 18004KT 30/18 A299 RMK A01 T02970178  RH  051%=      5-min Rain = 0
KSP1 100545Z 18005KT 30/18 A299 RMK A01 T02950178  RH  052%=      5-min Rain = 0
KSP1 100550Z 17005KT 29/18 A299 RMK A01 T02930178  RH  053%=      5-min Rain = 0
KSP1 100555Z 17005KT 29/18 A299 RMK A01 T02920178  RH  053%=      5-min Rain = 0
KSP1 100600Z 17005KT 29/18 A2991 RMK A01 T02910179  RH  053%=      5-min Rain = 0
KSP1 100605Z 17004KT 29/18 A2991 RMK A01 T02920179  RH  053%=      5-min Rain = 0
KSP1 100610Z 17004KT 29/18 A2991 RMK A01 T02910180  RH  054%=      5-min Rain = 0
KSP1 100615Z 18004KT 29/18 A2991 RMK A01 T02900180  RH  054%=      5-min Rain = 0
KSP1 100620Z 19004KT 29/18 A2991 RMK A01 T02890180  RH  055%=      5-min Rain = 0
KSP1 100625Z 18004KT 29/18 A2991 RMK A01 T02870180  RH  055%=      5-min Rain = 0
KSP1 100630Z 19004KT 29/18 A2991 RMK A01 T02850181  RH  056%=      5-min Rain = 0
KSP1 100635Z 18004KT 28/18 A2991 RMK A01 T02830181  RH  057%=      5-min Rain = 0
KSP1 100640Z 18004KT 28/18 A299 RMK A01 T02820181  RH  057%=      5-min Rain = 0
KSP1 100645Z 17004KT 28/18 A299 RMK A01 T02800181  RH  058%=      5-min Rain = 0
KSP1 100650Z 18005KT 28/18 A299 RMK A01 T02790181  RH  058%=      5-min Rain = 0
KSP1 100655Z 17004KT 28/18 A2991 RMK A01 T02800181  RH  058%=      5-min Rain = 0
KSP1 100700Z 16004KT 28/18 A2991 RMK A01 T02790182  RH  059%=      5-min Rain = 0
KSP1 100705Z 16005KT 28/18 A2991 RMK A01 T02770182  RH  059%=      5-min Rain = 0
KSP1 100710Z 17004KT 28/18 A2991 RMK A01 T02770182  RH  059%=      5-min Rain = 0
KSP1 100715Z 18004KT 28/18 A2991 RMK A01 T02780183  RH  059%=      5-min Rain = 0
KSP1 100720Z 18004KT 28/18 A2991 RMK A01 T02790184  RH  059%=      5-min Rain = 0
KSP1 100725Z 18006KT 28/19 A2991 RMK A01 T02810185  RH  059%=      5-min Rain = 0
KSP1 100730Z 19007KT 29/19 A2991 RMK A01 T02850185  RH  058%=      5-min Rain = 0
KSP1 100735Z 19007KT 29/19 A2991 RMK A01 T02860186  RH  058%=      5-min Rain = 0
KSP1 100740Z 19007KT 29/19 A2991 RMK A01 T02870186  RH  057%=      5-min Rain = 0
KSP1 100745Z 18005KT 29/19 A2991 RMK A01 T02860187  RH  058%=      5-min Rain = 0
KSP1 100750Z 18005KT 29/19 A2991 RMK A01 T02850186  RH  058%=      5-min Rain = 0
KSP1 100755Z 19006KT 29/19 A2991 RMK A01 T02860186  RH  058%=      5-min Rain = 0
KSP1 100800Z 19006KT 29/19 A2991 RMK A01 T02850187  RH  058%=      5-min Rain = 0
KSP1 100805Z 19005KT 28/19 A2991 RMK A01 T02820187  RH  059%=      5-min Rain = 0
KSP1 100810Z 19006KT 28/19 A2991 RMK A01 T02810187  RH  060%=      5-min Rain = 0
KSP1 100815Z 20005KT 28/19 A2991 RMK A01 T02780186  RH  061%=      5-min Rain = 0
KSP1 100820Z 19005KT 28/19 A2991 RMK A01 T02750186  RH  062%=      5-min Rain = 0
KSP1 100825Z 19005KT 27/19 A2991 RMK A01 T02720186  RH  063%=      5-min Rain = 0
KSP1 100830Z 20006KT 27/19 A2991 RMK A01 T02700187  RH  064%=      5-min Rain = 0
KSP1 100835Z 21005KT 27/19 A2992 RMK A01 T02680186  RH  064%=      5-min Rain = 0
KSP1 100840Z 22004KT 27/19 A2992 RMK A01 T02660186  RH  065%=      5-min Rain = 0
KSP1 100845Z 21004KT 27/19 A2992 RMK A01 T02650187  RH  065%=      5-min Rain = 0
KSP1 100850Z 21005KT 26/19 A2992 RMK A01 T02630187  RH  066%=      5-min Rain = 0
KSP1 100855Z 20005KT 26/19 A2992 RMK A01 T02620186  RH  066%=      5-min Rain = 0
KSP1 100900Z 19006KT 26/19 A2992 RMK A01 T02630186  RH  066%=      5-min Rain = 0
KSP1 100905Z 20005KT 26/19 A2992 RMK A01 T02640186  RH  066%=      5-min Rain = 0
KSP1 100910Z 19005KT 27/19 A2992 RMK A01 T02650186  RH  065%=      5-min Rain = 0
KSP1 100915Z 20005KT 26/19 A2992 RMK A01 T02640186  RH  066%=      5-min Rain = 0
KSP1 100920Z 21005KT 26/19 A2992 RMK A01 T02640186  RH  066%=      5-min Rain = 0
KSP1 100925Z 19006KT 26/19 A2992 RMK A01 T02640186  RH  065%=      5-min Rain = 0
KSP1 100930Z 19005KT 27/19 A2992 RMK A01 T02660186  RH  065%=      5-min Rain = 0
KSP1 100935Z 19004KT 27/19 A2992 RMK A01 T02650186  RH  065%=      5-min Rain = 0
KSP1 100940Z 19005KT 26/19 A2992 RMK A01 T02640186  RH  065%=      5-min Rain = 0
KSP1 100945Z 19005KT 26/19 A2992 RMK A01 T02640186  RH  066%=      5-min Rain = 0
KSP1 100950Z 20005KT 26/19 A2992 RMK A01 T02610186  RH  067%=      5-min Rain = 0
KSP1 100955Z 21003KT 26/19 A2992 RMK A01 T02590186  RH  067%=      5-min Rain = 0
KSP1 101000Z 20003KT 26/19 A2992 RMK A01 T02590185  RH  067%=      5-min Rain = 0
KSP1 101005Z 18003KT 26/19 A2993 RMK A01 T02600185  RH  067%=      5-min Rain = 0
KSP1 101010Z 17005KT 26/19 A2992 RMK A01 T02590185  RH  068%=      5-min Rain = 0
KSP1 101015Z 17005KT 26/19 A2992 RMK A01 T02560185  RH  068%=      5-min Rain = 0
KSP1 101020Z 18005KT 26/19 A2992 RMK A01 T02560185  RH  068%=      5-min Rain = 0
KSP1 101025Z 19005KT 26/19 A2992 RMK A01 T02550185  RH  069%=      5-min Rain = 0
KSP1 101030Z 19005KT 26/18 A2992 RMK A01 T02560184  RH  068%=      5-min Rain = 0
KSP1 101035Z 18004KT 26/18 A2993 RMK A01 T02560184  RH  068%=      5-min Rain = 0
KSP1 101040Z 19003KT 26/18 A2993 RMK A01 T02560184  RH  068%=      5-min Rain = 0
KSP1 101045Z 26002KT 26/19 A2994 RMK A01 T02560185  RH  068%=      5-min Rain = 0
KSP1 101050Z 31003KT 25/19 A2994 RMK A01 T02500186  RH  071%=      5-min Rain = 0
KSP1 101055Z 23002KT 25/19 A2994 RMK A01 T02460186  RH  073%=      5-min Rain = 0
KSP1 101100Z 20006KT 25/19 A2994 RMK A01 T02450185  RH  073%=      5-min Rain = 0
KSP1 101105Z 21006KT 25/19 A2994 RMK A01 T02450185  RH  073%=      5-min Rain = 0
KSP1 101110Z 23005KT 25/18 A2994 RMK A01 T02450184  RH  073%=      5-min Rain = 0
KSP1 101115Z 23005KT 25/18 A2994 RMK A01 T02500184  RH  071%=      5-min Rain = 0
KSP1 101120Z 21004KT 25/18 A2995 RMK A01 T02510184  RH  070%=      5-min Rain = 0
KSP1 101125Z 20004KT 25/18 A2995 RMK A01 T02500184  RH  071%=      5-min Rain = 0
KSP1 101130Z 19004KT 25/18 A2996 RMK A01 T02490184  RH  071%=      5-min Rain = 0
KSP1 101135Z 18002KT 25/18 A2996 RMK A01 T02490183  RH  070%=      5-min Rain = 0
KSP1 101140Z 16002KT 25/18 A2996 RMK A01 T02480183  RH  071%=      5-min Rain = 0
KSP1 101145Z 14002KT 25/18 A2997 RMK A01 T02480183  RH  071%=      5-min Rain = 0
KSP1 101150Z 13003KT 25/18 A2997 RMK A01 T02490183  RH  071%=      5-min Rain = 0
KSP1 101155Z 15005KT 25/18 A2997 RMK A01 T02490184  RH  071%=      5-min Rain = 0
KSP1 101200Z 15004KT 25/18 A2997 RMK A01 T02490184  RH  071%=      5-min Rain = 0
KSP1 101205Z 15004KT 25/18 A2997 RMK A01 T02490184  RH  071%=      5-min Rain = 0
KSP1 101210Z 14004KT 25/18 A2997 RMK A01 T02490184  RH  071%=      5-min Rain = 0
KSP1 101215Z 15005KT 25/19 A2997 RMK A01 T02480186  RH  072%=      5-min Rain = 0
KSP1 101220Z 15005KT 25/19 A2997 RMK A01 T02460186  RH  073%=      5-min Rain = 0
KSP1 101225Z 16005KT 25/19 A2997 RMK A01 T02450189  RH  075%=      5-min Rain = 0
KSP1 101230Z 15005KT 25/19 A2997 RMK A01 T02450188  RH  075%=      5-min Rain = 0
KSP1 101235Z 15004KT 25/19 A2997 RMK A01 T02480188  RH  073%=      5-min Rain = 0
KSP1 101240Z 18003KT 25/19 A2997 RMK A01 T02510189  RH  072%=      5-min Rain = 0
KSP1 101245Z 17005KT 26/19 A2997 RMK A01 T02550188  RH  070%=      5-min Rain = 0
KSP1 101250Z 16006KT 26/19 A2998 RMK A01 T02580188  RH  069%=      5-min Rain = 0
KSP1 101255Z 16005KT 26/19 A2998 RMK A01 T02580188  RH  069%=      5-min Rain = 0
KSP1 101300Z 18005KT 26/19 A2998 RMK A01 T02580187  RH  068%=      5-min Rain = 0
KSP1 101305Z 19005KT 26/19 A2998 RMK A01 T02590186  RH  068%=      5-min Rain = 0
KSP1 101310Z 18005KT 26/19 A2998 RMK A01 T02600187  RH  068%=      5-min Rain = 0
KSP1 101315Z 16004KT 26/19 A2999 RMK A01 T02610188  RH  068%=      5-min Rain = 0
KSP1 101320Z 17004KT 26/19 A2999 RMK A01 T02630189  RH  067%=      5-min Rain = 0
KSP1 101325Z 19005KT 27/19 A2998 RMK A01 T02680189  RH  065%=      5-min Rain = 0
KSP1 101330Z 19005KT 27/19 A2999 RMK A01 T02730190  RH  064%=      5-min Rain = 0
KSP1 101335Z 19005KT 28/19 A2999 RMK A01 T02760188  RH  062%=      5-min Rain = 0
KSP1 101340Z 19008KT 28/19 A2999 RMK A01 T02800186  RH  060%=      5-min Rain = 0
KSP1 101345Z 19009KT 28/19 A2999 RMK A01 T02820186  RH  059%=      5-min Rain = 0
KSP1 101350Z 19009KT 28/19 A2999 RMK A01 T02830186  RH  059%=      5-min Rain = 0
KSP1 101355Z 20007KT 28/19 A30 RMK A01 T02840187  RH  059%=      5-min Rain = 0
KSP1 101400Z 20007KT 29/19 A2999 RMK A01 T02900189  RH  057%=      5-min Rain = 0
KSP1 101405Z 20009KT 29/19 A2999 RMK A01 T02890187  RH  057%=      5-min Rain = 0
KSP1 101410Z 22011KT 29/19 A2999 RMK A01 T02910187  RH  056%=      5-min Rain = 0
KSP1 101415Z 22010G15KT 30/19 A2999 RMK A01 T02970188  RH  055%=      5-min Rain = 0
KSP1 101420Z 22010KT 30/19 A30 RMK A01 T02990188  RH  054%=      5-min Rain = 0
KSP1 101425Z 21011KT 30/19 A30 RMK A01 T03010188  RH  054%=      5-min Rain = 0
KSP1 101430Z 22009G15KT 30/19 A3001 RMK A01 T03020188  RH  053%=      5-min Rain = 0
KSP1 101435Z 24009KT 31/19 A3001 RMK A01 T03070190  RH  053%=      5-min Rain = 0
KSP1 101440Z 22009KT 31/19 A3002 RMK A01 T03090190  RH  052%=      5-min Rain = 0
KSP1 101445Z 22008KT 31/19 A3001 RMK A01 T03080189  RH  052%=      5-min Rain = 0
KSP1 101450Z 22010KT 31/19 A3001 RMK A01 T03100190  RH  052%=      5-min Rain = 0
KSP1 101455Z 22011KT 31/19 A3001 RMK A01 T03090189  RH  052%=      5-min Rain = 0
KSP1 101500Z 20010KT 31/19 A3001 RMK A01 T03110190  RH  051%=      5-min Rain = 0
KSP1 101505Z 20010G15KT 31/19 A3001 RMK A01 T03090189  RH  052%=      5-min Rain = 0
KSP1 101510Z 19008KT 31/19 A3001 RMK A01 T03090189  RH  052%=      5-min Rain = 0
KSP1 101515Z 19009KT 31/19 A3002 RMK A01 T03060189  RH  053%=      5-min Rain = 0
KSP1 101520Z 21007KT 31/19 A3001 RMK A01 T03100191  RH  052%=      5-min Rain = 0
KSP1 101525Z 19007KT 31/19 A3002 RMK A01 T03110191  RH  052%=      5-min Rain = 0
KSP1 101530Z 20009KT 31/19 A3002 RMK A01 T03090190  RH  052%=      5-min Rain = 0
KSP1 101535Z 19008KT 31/19 A3002 RMK A01 T03080190  RH  052%=      5-min Rain = 0
KSP1 101540Z 20009KT 31/19 A3002 RMK A01 T03140193  RH  052%=      5-min Rain = 0
KSP1 101545Z 20009KT 32/20 A3001 RMK A01 T03210195  RH  050%=      5-min Rain = 0
KSP1 101550Z 19009KT 32/19 A3002 RMK A01 T03200193  RH  050%=      5-min Rain = 0
KSP1 101555Z 19008KT 32/19 A3002 RMK A01 T03190193  RH  050%=      5-min Rain = 0
KSP1 101600Z 20007KT 33/20 A3002 RMK A01 T03250195  RH  049%=      5-min Rain = 0
KSP1 101605Z 18006KT 32/20 A3002 RMK A01 T03230195  RH  049%=      5-min Rain = 0
KSP1 101610Z 20007KT 33/20 A3002 RMK A01 T03270196  RH  049%=      5-min Rain = 0
KSP1 101615Z 20008G13KT 33/20 A3002 RMK A01 T03290195  RH  048%=      5-min Rain = 0
KSP1 101620Z 20008KT 33/20 A3002 RMK A01 T03320196  RH  047%=      5-min Rain = 0
KSP1 101625Z 17007KT 33/20 A3003 RMK A01 T03330196  RH  047%=      5-min Rain = 0
KSP1 101630Z 18006KT 34/20 A3003 RMK A01 T03350198  RH  047%=      5-min Rain = 0
KSP1 101635Z 19006KT 34/20 A3003 RMK A01 T03380196  RH  046%=      5-min Rain = 0
KSP1 101640Z 20007KT 34/19 A3003 RMK A01 T03350194  RH  046%=      5-min Rain = 0
KSP1 101645Z 19005KT 34/20 A3003 RMK A01 T03360195  RH  046%=      5-min Rain = 0
KSP1 101650Z 15006KT 34/20 A3003 RMK A01 T03380196  RH  046%=      5-min Rain = 0
KSP1 101655Z 17007KT 34/20 A3003 RMK A01 T03400195  RH  045%=      5-min Rain = 0
KSP1 101700Z 14006KT 34/19 A3003 RMK A01 T03390194  RH  045%=      5-min Rain = 0
KSP1 101705Z 15006KT 34/20 A3003 RMK A01 T03430196  RH  045%=      5-min Rain = 0
KSP1 101710Z 16006G11KT 35/20 A3003 RMK A01 T03470195  RH  043%=      5-min Rain = 0
KSP1 101715Z 15007KT 35/19 A3003 RMK A01 T03450191  RH  043%=      5-min Rain = 0
KSP1 101720Z 18005KT 35/19 A3003 RMK A01 T03460192  RH  043%=      5-min Rain = 0
KSP1 101725Z 17006KT 35/19 A3003 RMK A01 T03490188  RH  041%=      5-min Rain = 0
KSP1 101730Z 18007KT 35/18 A3003 RMK A01 T03530183  RH  039%=      5-min Rain = 0
KSP1 101735Z 18006KT 35/19 A3003 RMK A01 T03530185  RH  039%=      5-min Rain = 0
KSP1 101740Z 17008KT 35/18 A3003 RMK A01 T03540178  RH  037%=      5-min Rain = 0
KSP1 101745Z 17004KT 35/18 A3003 RMK A01 T03520182  RH  039%=      5-min Rain = 0
KSP1 101750Z 14007G14KT 35/19 A3003 RMK A01 T03540191  RH  041%=      5-min Rain = 0
KSP1 101755Z 14009KT 35/19 A3003 RMK A01 T03530188  RH  040%=      5-min Rain = 0
KSP1 101800Z 17006G11KT 36/17 A3003 RMK A01 T03560171  RH  035%=      5-min Rain = 0
KSP1 101805Z 17009KT 36/18 A3003 RMK A01 T03620182  RH  037%=      5-min Rain = 0
KSP1 101810Z 15007KT 36/18 A3003 RMK A01 T03570181  RH  037%=      5-min Rain = 0
KSP1 101815Z 16007G13KT 36/18 A3003 RMK A01 T03610178  RH  036%=      5-min Rain = 0
KSP1 101820Z 16008KT 37/18 A3003 RMK A01 T03650177  RH  035%=      5-min Rain = 0
KSP1 101825Z 16009G15KT 36/17 A3002 RMK A01 T03640172  RH  034%=      5-min Rain = 0
KSP1 101830Z 15009KT 36/17 A3002 RMK A01 T03640170  RH  034%=      5-min Rain = 0
KSP1 101835Z 16008G13KT 37/18 A3002 RMK A01 T03660177  RH  035%=      5-min Rain = 0
KSP1 101840Z 13009G15KT 36/18 A3002 RMK A01 T03640181  RH  036%=      5-min Rain = 0
KSP1 101845Z 15011G16KT 37/17 A3002 RMK A01 T03650171  RH  034%=      5-min Rain = 0
KSP1 101850Z 15011G17KT 36/18 A3002 RMK A01 T03640175  RH  035%=      5-min Rain = 0
KSP1 101855Z 16011G17KT 37/18 A3002 RMK A01 T03660178  RH  035%=      5-min Rain = 0
KSP1 101900Z 16009G14KT 37/18 A3001 RMK A01 T03680183  RH  036%=      5-min Rain = 0
KSP1 101905Z 16010KT 37/18 A3001 RMK A01 T03690178  RH  034%=      5-min Rain = 0
KSP1 101910Z 16011G16KT 37/18 A3001 RMK A01 T03690183  RH  035%=      5-min Rain = 0
KSP1 101915Z 15010G16KT 37/19 A3001 RMK A01 T03680185  RH  036%=      5-min Rain = 0
KSP1 101920Z 13009G16KT 37/18 A3002 RMK A01 T03700180  RH  035%=      5-min Rain = 0
KSP1 101925Z 15009G14KT 37/18 A3002 RMK A01 T03700178  RH  034%=      5-min Rain = 0
KSP1 101930Z 13009KT 37/17 A3002 RMK A01 T03700173  RH  033%=      5-min Rain = 0
KSP1 101935Z 13005G10KT 37/18 A3002 RMK A01 T03730177  RH  033%=      5-min Rain = 0
KSP1 101940Z 13009G16KT 38/18 A3002 RMK A01 T03750181  RH  034%=      5-min Rain = 0
KSP1 101945Z 12010G16KT 37/18 A3002 RMK A01 T03700178  RH  034%=      5-min Rain = 0
KSP1 101950Z 12009G18KT 37/18 A3001 RMK A01 T03730178  RH  034%=      5-min Rain = 0
KSP1 101955Z 15009G14KT 38/18 A3001 RMK A01 T03750180  RH  034%=      5-min Rain = 0
KSP1 102000Z 15009G15KT 38/18 A3001 RMK A01 T03780179  RH  033%=      5-min Rain = 0
KSP1 102005Z 12008G14KT 38/18 A3001 RMK A01 T03750180  RH  034%=      5-min Rain = 0
KSP1 102010Z 12009G14KT 37/17 A3002 RMK A01 T03720174  RH  033%=      5-min Rain = 0
KSP1 102015Z 12008G16KT 37/17 A3002 RMK A01 T03720173  RH  033%=      5-min Rain = 0
KSP1 102020Z 11009G15KT 37/18 A3002 RMK A01 T03700178  RH  034%=      5-min Rain = 0
KSP1 102025Z 12010G15KT 37/18 A3002 RMK A01 T03690182  RH  035%=      5-min Rain = 0
KSP1 102030Z 11010G16KT 37/19 A3002 RMK A01 T03740185  RH  035%=      5-min Rain = 0
KSP1 102035Z 11009G14KT 38/19 A3001 RMK A01 T03770185  RH  034%=      5-min Rain = 0
KSP1 102040Z 11010G15KT 38/19 A3001 RMK A01 T03770187  RH  035%=      5-min Rain = 0
KSP1 102045Z 13011G16KT 38/18 A3001 RMK A01 T03750184  RH  035%=      5-min Rain = 0
KSP1 102050Z 13011G16KT 38/18 A30 RMK A01 T03750182  RH  034%=      5-min Rain = 0
KSP1 102055Z 12010G17KT 38/18 A30 RMK A01 T03770181  RH  034%=      5-min Rain = 0
KSP1 102100Z 13011G19KT 37/18 A30 RMK A01 T03740180  RH  034%=      5-min Rain = 0
KSP1 102105Z 13012G19KT 37/18 A30 RMK A01 T03740179  RH  033%=      5-min Rain = 0
KSP1 102110Z 11012G20KT 38/18 A30 RMK A01 T03760181  RH  034%=      5-min Rain = 0
KSP1 102115Z 12011G20KT 38/18 A3001 RMK A01 T03760184  RH  034%=      5-min Rain = 0
KSP1 102120Z 12013G19KT 38/18 A3001 RMK A01 T03760182  RH  034%=      5-min Rain = 0
KSP1 102125Z 12012G18KT 37/18 A3001 RMK A01 T03730178  RH  034%=      5-min Rain = 0
KSP1 102130Z 11009G16KT 38/18 A3001 RMK A01 T03760182  RH  034%=      5-min Rain = 0
KSP1 102135Z 12010G15KT 38/18 A3001 RMK A01 T03790183  RH  034%=      5-min Rain = 0
KSP1 102140Z 13011G17KT 38/18 A3001 RMK A01 T03770180  RH  033%=      5-min Rain = 0
KSP1 102145Z 13009G15KT 38/18 A3001 RMK A01 T03770184  RH  034%=      5-min Rain = 0
KSP1 102150Z 12012G18KT 38/18 A30 RMK A01 T03770183  RH  034%=      5-min Rain = 0
KSP1 102155Z 12011G16KT 37/18 A30 RMK A01 T03730183  RH  035%=      5-min Rain = 0
KSP1 102200Z 13012G19KT 38/19 A30 RMK A01 T03750185  RH  035%=      5-min Rain = 0
KSP1 102205Z 14011G21KT 38/19 A30 RMK A01 T03760187  RH  035%=      5-min Rain = 0
KSP1 102210Z 13010G16KT 37/19 A30 RMK A01 T03740186  RH  035%=      5-min Rain = 0
KSP1 102215Z 13010G15KT 37/18 A30 RMK A01 T03740184  RH  035%=      5-min Rain = 0
KSP1 102220Z 12011G18KT 37/18 A30 RMK A01 T03720181  RH  035%=      5-min Rain = 0
KSP1 102225Z 13011G18KT 37/19 A2999 RMK A01 T03740186  RH  035%=      5-min Rain = 0
KSP1 102230Z 15011G17KT 38/19 A2999 RMK A01 T03760188  RH  035%=      5-min Rain = 0
KSP1 102235Z 15011G18KT 37/19 A2999 RMK A01 T03740187  RH  035%=      5-min Rain = 0
KSP1 102240Z 14011G16KT 37/19 A2999 RMK A01 T03720185  RH  035%=      5-min Rain = 0
KSP1 102245Z 14011G16KT 37/19 A2999 RMK A01 T03720187  RH  036%=      5-min Rain = 0
KSP1 102250Z 13011G17KT 37/19 A2998 RMK A01 T03710186  RH  036%=      5-min Rain = 0
KSP1 102255Z 13009G17KT 37/19 A2998 RMK A01 T03720187  RH  036%=      5-min Rain = 0
KSP1 102300Z 14012G18KT 37/19 A2998 RMK A01 T03710187  RH  036%=      5-min Rain = 0
KSP1 102305Z 14012G19KT 37/19 A2998 RMK A01 T03700187  RH  036%=      5-min Rain = 0
KSP1 102310Z 14013G20KT 37/19 A2998 RMK A01 T03710186  RH  036%=      5-min Rain = 0
KSP1 102315Z 14011G17KT 37/19 A2998 RMK A01 T03690185  RH  036%=      5-min Rain = 0
KSP1 102320Z 14012G19KT 37/19 A2997 RMK A01 T03690185  RH  036%=      5-min Rain = 0
KSP1 102325Z 14014G19KT 37/18 A2997 RMK A01 T03680184  RH  036%=      5-min Rain = 0
KSP1 102330Z 14012G18KT 37/19 A2997 RMK A01 T03680186  RH  037%=      5-min Rain = 0
KSP1 102335Z 14013G21KT 37/19 A2997 RMK A01 T03680188  RH  037%=      5-min Rain = 0
KSP1 102340Z 14013G19KT 37/19 A2997 RMK A01 T03670188  RH  037%=      5-min Rain = 0
KSP1 102345Z 14011G16KT 37/19 A2997 RMK A01 T03670189  RH  037%=      5-min Rain = 0
KSP1 102350Z 15013G21KT 37/19 A2997 RMK A01 T03670190  RH  038%=      5-min Rain = 0
KSP1 102355Z 15013G19KT 37/19 A2997 RMK A01 T03660191  RH  038%=      5-min Rain = 0
KSP1 110000Z 14012G18KT 36/19 A2997 RMK A01 T03640191  RH  038%=      5-min Rain = 0
KSP1 110005Z 14012G18KT 36/19 A2997 RMK A01 T03640189  RH  038%=      5-min Rain = 0
KSP1 110010Z 14013G20KT 36/19 A2997 RMK A01 T03630189  RH  038%=      5-min Rain = 0
KSP1 110015Z 15011G20KT 36/19 A2997 RMK A01 T03630190  RH  039%=      5-min Rain = 0
KSP1 110020Z 14014G22KT 36/19 A2997 RMK A01 T03620189  RH  038%=      5-min Rain = 0
KSP1 110025Z 14013G19KT 36/19 A2997 RMK A01 T03600187  RH  038%=      5-min Rain = 0
KSP1 110030Z 14014G21KT 36/19 A2997 RMK A01 T03600188  RH  039%=      5-min Rain = 0
KSP1 110035Z 15014G20KT 36/19 A2997 RMK A01 T03590188  RH  039%=      5-min Rain = 0
KSP1 110040Z 14014G20KT 36/19 A2997 RMK A01 T03580188  RH  039%=      5-min Rain = 0
KSP1 110045Z 14012G18KT 36/19 A2997 RMK A01 T03580189  RH  039%=      5-min Rain = 0
KSP1 110050Z 15012G19KT 36/19 A2997 RMK A01 T03570188  RH  039%=      5-min Rain = 0
KSP1 110055Z 15011G18KT 36/19 A2997 RMK A01 T03550189  RH  040%=      5-min Rain = 0
KSP1 110100Z 15011G18KT 36/19 A2997 RMK A01 T03550190  RH  040%=      5-min Rain = 0
KSP1 110105Z 15011G17KT 35/19 A2997 RMK A01 T03540189  RH  040%=      5-min Rain = 0
KSP1 110110Z 15011G17KT 35/19 A2997 RMK A01 T03530187  RH  040%=      5-min Rain = 0
KSP1 110115Z 15009KT 35/19 A2997 RMK A01 T03510187  RH  040%=      5-min Rain = 0
KSP1 110120Z 15010G15KT 35/19 A2997 RMK A01 T03490188  RH  041%=      5-min Rain = 0
KSP1 110125Z 15010KT 35/19 A2997 RMK A01 T03470188  RH  041%=      5-min Rain = 0
KSP1 110130Z 15008KT 35/19 A2997 RMK A01 T03460190  RH  042%=      5-min Rain = 0
KSP1 110135Z 15008KT 34/19 A2997 RMK A01 T03430190  RH  043%=      5-min Rain = 0
KSP1 110140Z 15008G13KT 34/19 A2997 RMK A01 T03420190  RH  043%=      5-min Rain = 0
KSP1 110145Z 15008KT 34/19 A2997 RMK A01 T03420189  RH  043%=      5-min Rain = 0
KSP1 110150Z 15008G14KT 34/19 A2997 RMK A01 T03400189  RH  043%=      5-min Rain = 0
KSP1 110155Z 15008KT 34/19 A2997 RMK A01 T03380189  RH  044%=      5-min Rain = 0
KSP1 110200Z 15008G13KT 34/19 A2997 RMK A01 T03370188  RH  044%=      5-min Rain = 0
KSP1 110205Z 15007KT 34/19 A2997 RMK A01 T03350188  RH  044%=      5-min Rain = 0
KSP1 110210Z 15007KT 33/19 A2997 RMK A01 T03330188  RH  045%=      5-min Rain = 0
KSP1 110215Z 15008G13KT 33/19 A2997 RMK A01 T03310188  RH  045%=      5-min Rain = 0
KSP1 110220Z 15008KT 33/19 A2997 RMK A01 T03300188  RH  046%=      5-min Rain = 0
KSP1 110225Z 15007KT 33/19 A2997 RMK A01 T03280188  RH  046%=      5-min Rain = 0
KSP1 110230Z 15007KT 33/19 A2997 RMK A01 T03270188  RH  046%=      5-min Rain = 0
KSP1 110235Z 15007KT 33/19 A2998 RMK A01 T03250188  RH  047%=      5-min Rain = 0
KSP1 110240Z 14006KT 32/19 A2998 RMK A01 T03230188  RH  048%=      5-min Rain = 0
KSP1 110245Z 14006KT 32/19 A2998 RMK A01 T03200189  RH  048%=      5-min Rain = 0
KSP1 110250Z 14005KT 32/19 A2998 RMK A01 T03180189  RH  049%=      5-min Rain = 0
KSP1 110255Z 15006KT 32/19 A2998 RMK A01 T03160189  RH  050%=      5-min Rain = 0
KSP1 110300Z 15006KT 32/19 A2998 RMK A01 T03150189  RH  050%=      5-min Rain = 0
KSP1 110305Z 15006KT 32/19 A2998 RMK A01 T03150189  RH  050%=      5-min Rain = 0
KSP1 110310Z 15005KT 31/19 A2998 RMK A01 T03120190  RH  051%=      5-min Rain = 0
KSP1 110315Z 14005KT 31/19 A2998 RMK A01 T03090191  RH  052%=      5-min Rain = 0
KSP1 110320Z 15005KT 31/19 A2999 RMK A01 T03070191  RH  053%=      5-min Rain = 0
KSP1 110325Z 15005KT 31/19 A2999 RMK A01 T03050192  RH  054%=      5-min Rain = 0
KSP1 110330Z 15005KT 30/19 A2999 RMK A01 T03040192  RH  054%=      5-min Rain = 0
KSP1 110335Z 15005KT 30/19 A2999 RMK A01 T03030192  RH  055%=      5-min Rain = 0
KSP1 110340Z 15005KT 30/19 A2999 RMK A01 T03010192  RH  055%=      5-min Rain = 0
KSP1 110345Z 15004KT 30/19 A2999 RMK A01 T02990192  RH  056%=      5-min Rain = 0
KSP1 110350Z 14004KT 30/19 A2999 RMK A01 T02970193  RH  056%=      5-min Rain = 0
KSP1 110355Z 14004KT 30/19 A2999 RMK A01 T02970192  RH  056%=      5-min Rain = 0
KSP1 110400Z 14004KT 30/19 A2999 RMK A01 T02960193  RH  057%=      5-min Rain = 0
KSP1 110405Z 14004KT 30/19 A2999 RMK A01 T02950193  RH  057%=      5-min Rain = 0
KSP1 110410Z 14004KT 29/19 A2999 RMK A01 T02940193  RH  058%=      5-min Rain = 0
KSP1 110415Z 15004KT 29/19 A2999 RMK A01 T02920193  RH  059%=      5-min Rain = 0
KSP1 110420Z 16004KT 29/19 A2999 RMK A01 T02910193  RH  059%=      5-min Rain = 0
KSP1 110425Z 16004KT 29/19 A2999 RMK A01 T02900193  RH  059%=      5-min Rain = 0
KSP1 110430Z 16004KT 29/19 A2999 RMK A01 T02900193  RH  059%=      5-min Rain = 0
KSP1 110435Z 15005KT 29/19 A30 RMK A01 T02900193  RH  059%=      5-min Rain = 0
KSP1 110440Z 15004KT 29/19 A30 RMK A01 T02900194  RH  059%=      5-min Rain = 0
KSP1 110445Z 15004KT 29/19 A2999 RMK A01 T02890194  RH  060%=      5-min Rain = 0
KSP1 110450Z 15004KT 29/19 A2999 RMK A01 T02880193  RH  060%=      5-min Rain = 0
KSP1 110455Z 15004KT 29/19 A2999 RMK A01 T02870193  RH  060%=      5-min Rain = 0

Page generated in 0.0465 seconds.